This is the latest recevied weather packets stored in our database for station/object IZ1GCT. If no packets are shown the sender has not sent any weather packets the latest 1 day(s).
| Time | Temp. | Humidity | Pressure | Rain* | Wind** | Luminosity | Snow |
|---|---|---|---|---|---|---|---|
| 1836274629 | 16.11° C | 84% | 1029.7 hPa | 0 mm | 1.34 m/s, 146° | - | - |
| 1836274481 | 16.67° C | 81% | 1029.7 hPa | 0 mm | 0 m/s | - | - |
| 1836274331 | 16.11° C | 83% | 1029.7 hPa | 0 mm | 0.89 m/s, 152° | - | - |
| 1836274180 | 16.67° C | 82% | 1029.6 hPa | 0 mm | 1.34 m/s, 140° | - | - |
| 1836274030 | 16.11° C | 82% | 1029.8 hPa | 0 mm | 0.45 m/s, 155° | - | - |
| 1778034056 | 11.11° C | 99% | 1012.3 hPa | 0 mm | 2.24 m/s, 135° | - | - |
| 1778033756 | 11.11° C | 99% | 1012.5 hPa | 0 mm | 1.34 m/s, 152° | - | - |
| 1778033455 | 11.11° C | 99% | 1012.5 hPa | 0 mm | 1.34 m/s, 122° | - | - |
| 1778033157 | 11.11° C | 99% | 1012.7 hPa | 0 mm | 1.34 m/s, 157° | - | - |
| 1778032856 | 11.11° C | 99% | 1012.6 hPa | 0 mm | 1.34 m/s, 135° | - | - |
| 1778032556 | 11.11° C | 99% | 1012.6 hPa | 0 mm | 0.89 m/s, 120° | - | - |
| 1778032257 | 11.11° C | 98% | 1012.7 hPa | 0 mm | 1.34 m/s, 139° | - | - |
| 1778031956 | 11.11° C | 98% | 1012.7 hPa | 0 mm | 0.89 m/s, 158° | - | - |
| 1778031656 | 11.11° C | 98% | 1012.6 hPa | 0 mm | 0.89 m/s, 139° | - | - |
| 1778031357 | 11.11° C | 98% | 1012.7 hPa | 0 mm | 0.45 m/s, 114° | - | - |
| 1778031056 | 11.67° C | 97% | 1012.7 hPa | 0 mm | 0.89 m/s, 135° | - | - |
| 1778030758 | 11.67° C | 97% | 1012.7 hPa | 0 mm | 1.34 m/s, 135° | - | - |
| 1778030457 | 11.67° C | 97% | 1012.8 hPa | 0 mm | 0.89 m/s, 132° | - | - |
| 1778030156 | 11.67° C | 97% | 1012.8 hPa | 0 mm | 0.89 m/s, 124° | - | - |
| 1778029856 | 11.67° C | 96% | 1012.9 hPa | 0 mm | 1.34 m/s, 135° | - | - |
| 1778029557 | 11.67° C | 96% | 1013 hPa | 0 mm | 0.45 m/s, 116° | - | - |
| 1778029257 | 11.67° C | 96% | 1013.1 hPa | 0 mm | 0.45 m/s, 135° | - | - |
| 1778028956 | 11.67° C | 95% | 1013.3 hPa | 0 mm | 0.45 m/s, 135° | - | - |
| 1778028657 | 11.67° C | 95% | 1013.4 hPa | 0 mm | 0.89 m/s, 135° | - | - |
| 1778028357 | 11.67° C | 95% | 1013.6 hPa | 0 mm | 0.45 m/s, 155° | - | - |
* Rain latest hour (hover to see other rain measurements)
** Current wind speed in m/s (hover to see current wind gust speed)